Time;durP1;ratioP1;P1;durP2;ratioP2;P2;SDS_P1;SDS_P2;PMS_P1;PMS_P2;Temp;Humidity;BMP_temperature;BMP_pressure;BME280_temperature;BME280_humidity;BME280_pressure;Samples;Min_cycle;Max_cycle;Signal;HPM_P1;HPM_P2
2022/05/23 00:00:20;;;;;;;3.85;2.40;;;;;14.50;95757.00;;;;8364489;28;20230;-65
2022/05/23 00:04:26;;;;;;;2.92;2.65;;;;;14.60;95749.00;;;;8364908;28;20217;-65
2022/05/23 00:08:29;;;;;;;5.32;2.40;;;;;14.80;95748.00;;;;8364096;28;20222;-65
2022/05/23 00:12:33;;;;;;;5.63;2.40;;;;;15.10;95748.00;;;;8365344;28;20317;-65
2022/05/23 00:17:10;;;;;;;6.40;2.40;;;;;15.30;95752.00;;;;8363906;28;20318;-65
2022/05/23 00:21:16;;;;;;;3.55;2.65;;;;;15.50;95751.00;;;;8363932;28;20223;-65
2022/05/23 00:25:50;;;;;;;5.38;2.80;;;;;15.80;95758.00;;;;8364035;28;20243;-65
2022/05/23 00:29:54;;;;;;;4.63;2.30;;;;;16.00;95748.00;;;;8363905;28;20226;-65
2022/05/23 00:38:19;;;;;;;4.43;2.78;;;;;16.30;95752.00;;;;8363515;28;20302;-65
2022/05/23 00:46:52;;;;;;;3.22;2.50;;;;;16.00;95746.00;;;;8363027;28;20314;-64
2022/05/23 00:50:59;;;;;;;4.63;2.95;;;;;15.90;95759.00;;;;8363524;28;20301;-64
2022/05/23 00:55:36;;;;;;;4.95;2.72;;;;;15.70;95761.00;;;;8363571;28;20314;-65
2022/05/23 00:59:40;;;;;;;3.92;3.40;;;;;15.60;95756.00;;;;8360841;28;20668;-65
2022/05/23 01:03:43;;;;;;;4.50;3.40;;;;;15.60;95752.00;;;;8362446;28;20276;-65
2022/05/23 01:07:48;;;;;;;6.07;3.97;;;;;15.60;95755.00;;;;8363214;28;20566;-65
2022/05/23 01:12:22;;;;;;;3.72;3.28;;;;;15.60;95753.00;;;;8362096;28;20255;-65
2022/05/23 01:16:27;;;;;;;5.22;3.05;;;;;15.60;95747.00;;;;8362987;28;20255;-65
2022/05/23 01:21:02;;;;;;;3.58;3.28;;;;;15.60;95731.00;;;;8362123;28;20234;-65
2022/05/23 01:25:15;;;;;;;8.88;3.80;;;;;15.60;95737.00;;;;8362318;28;20238;-65
2022/05/23 01:29:42;;;;;;;4.13;3.10;;;;;15.40;95732.00;;;;8362023;28;20303;-65
2022/05/23 01:33:47;;;;;;;3.55;3.25;;;;;15.40;95743.00;;;;8362002;28;20226;-65
2022/05/23 01:38:21;;;;;;;4.43;2.85;;;;;15.50;95745.00;;;;8362414;28;20669;-65
2022/05/23 01:42:24;;;;;;;2.67;2.47;;;;;15.70;95750.00;;;;8361445;28;20744;-65
2022/05/23 01:47:07;;;;;;;5.10;2.75;;;;;15.90;95753.00;;;;8361489;28;20228;-65
2022/05/23 01:51:11;;;;;;;4.32;2.72;;;;;16.10;95752.00;;;;8361986;28;20624;-65
2022/05/23 01:55:14;;;;;;;4.10;2.85;;;;;16.20;95753.00;;;;8361036;28;20215;-65
2022/05/23 02:04:12;;;;;;;6.05;3.20;;;;;16.20;95742.00;;;;8360301;28;20332;-65
2022/05/23 02:08:17;;;;;;;3.80;2.63;;;;;16.30;95742.00;;;;8360925;28;20295;-65
2022/05/23 02:12:20;;;;;;;3.72;2.90;;;;;16.30;95726.00;;;;8361438;28;20651;-66
2022/05/23 02:16:57;;;;;;;5.65;3.20;;;;;16.30;95734.00;;;;8360802;28;20302;-65
2022/05/23 02:21:00;;;;;;;8.43;3.60;;;;;16.20;95726.00;;;;8360193;28;20228;-65
2022/05/23 02:25:05;;;;;;;4.97;3.10;;;;;16.10;95724.00;;;;8361286;28;20266;-65
2022/05/23 02:29:40;;;;;;;3.78;2.80;;;;;16.00;95717.00;;;;8360351;28;20614;-65
2022/05/23 02:33:43;;;;;;;4.72;2.90;;;;;15.70;95732.00;;;;8361294;28;20251;-65
2022/05/23 02:38:20;;;;;;;8.43;3.47;;;;;15.50;95727.00;;;;8356483;28;20596;-65
2022/05/23 02:42:25;;;;;;;2.90;2.70;;;;;15.40;95716.00;;;;8360409;28;20222;-65
2022/05/23 02:46:28;;;;;;;3.28;3.08;;;;;15.20;95706.00;;;;8361053;28;20314;-65
2022/05/23 02:50:31;;;;;;;3.55;3.25;;;;;15.10;95701.00;;;;8360156;28;20550;-65
2022/05/23 02:54:35;;;;;;;5.88;2.95;;;;;15.00;95698.00;;;;8361638;28;20313;-66
2022/05/23 02:58:39;;;;;;;9.13;3.17;;;;;14.90;95683.00;;;;8366550;28;20310;-64
2022/05/23 03:07:03;;;;;;;9.18;2.85;;;;;14.90;95677.00;;;;8343210;28;20904;-67
2022/05/23 03:11:09;;;;;;;4.18;3.45;;;;;14.90;95674.00;;;;8340448;28;20770;-65
2022/05/23 03:15:14;;;;;;;4.07;3.28;;;;;14.90;95663.00;;;;8348862;28;20688;-66
2022/05/23 03:19:17;;;;;;;4.10;3.03;;;;;14.90;95654.00;;;;8347378;28;20305;-66
2022/05/23 03:27:52;;;;;;;7.75;3.33;;;;;15.00;95639.00;;;;8277892;28;20338;-65
2022/05/23 03:31:57;;;;;;;3.17;2.88;;;;;15.00;95643.00;;;;8347756;28;20230;-65
2022/05/23 03:36:01;;;;;;;3.65;3.20;;;;;15.00;95643.00;;;;8349294;28;20237;-66
2022/05/23 03:40:05;;;;;;;6.43;3.13;;;;;15.00;95645.00;;;;8349229;28;20226;-67
2022/05/23 03:44:08;;;;;;;7.03;2.95;;;;;15.10;95650.00;;;;8341361;28;20237;-65
2022/05/23 03:48:13;;;;;;;8.32;3.10;;;;;15.20;95656.00;;;;8339517;28;20222;-65
2022/05/23 03:52:16;;;;;;;5.13;3.13;;;;;15.20;95637.00;;;;8344396;28;20223;-65
2022/05/23 03:56:20;;;;;;;6.15;3.50;;;;;15.30;95641.00;;;;8330342;28;20238;-66
2022/05/23 04:00:25;;;;;;;6.25;3.05;;;;;15.40;95646.00;;;;8345319;28;20648;-65
2022/05/23 04:04:31;;;;;;;6.07;3.47;;;;;15.40;95646.00;;;;8345269;28;20320;-64
2022/05/23 04:08:43;;;;;;;3.75;3.40;;;;;15.40;95634.00;;;;8336154;28;20226;-66
2022/05/23 04:12:46;;;;;;;8.00;3.95;;;;;15.40;95637.00;;;;8341351;28;20263;-65
2022/05/23 04:16:50;;;;;;;9.50;3.50;;;;;15.40;95642.00;;;;8341294;28;20319;-66
2022/05/23 04:20:58;;;;;;;9.73;4.45;;;;;15.40;95636.00;;;;8331643;28;20920;-67
2022/05/23 04:25:01;;;;;;;5.22;3.20;;;;;15.40;95620.00;;;;8340530;28;20242;-66
2022/05/23 04:29:07;;;;;;;9.40;3.40;;;;;15.60;95615.00;;;;8340671;28;20236;-66
2022/05/23 04:37:37;;;;;;;4.72;3.05;;;;;15.90;95623.00;;;;8346886;28;20314;-65
2022/05/23 04:41:41;;;;;;;7.63;3.50;;;;;15.90;95632.00;;;;8339050;28;20227;-66
2022/05/23 04:45:45;;;;;;;7.85;4.05;;;;;16.00;95616.00;;;;8339122;28;20240;-64
2022/05/23 04:49:50;;;;;;;5.78;3.40;;;;;16.10;95606.00;;;;8329020;28;20234;-66
2022/05/23 04:53:56;;;;;;;6.45;3.17;;;;;16.10;95612.00;;;;8325837;28;20252;-66
2022/05/23 04:57:59;;;;;;;5.93;3.17;;;;;16.20;95610.00;;;;8337573;28;20219;-66
2022/05/23 05:02:03;;;;;;;4.07;3.63;;;;;16.30;95599.00;;;;8344250;28;20581;-67
2022/05/23 05:06:06;;;;;;;7.97;3.47;;;;;16.30;95602.00;;;;8312902;28;20225;-66
2022/05/23 05:10:11;;;;;;;9.65;3.97;;;;;16.40;95583.00;;;;8313192;28;20229;-66
2022/05/23 05:14:15;;;;;;;7.38;3.58;;;;;16.40;95581.00;;;;8312311;28;20239;-66
2022/05/23 05:18:18;;;;;;;9.98;3.80;;;;;16.50;95589.00;;;;8312741;28;20217;-65
2022/05/23 05:22:21;;;;;;;8.57;3.90;;;;;16.70;95597.00;;;;8312746;28;20998;-66
2022/05/23 05:26:26;;;;;;;4.50;3.40;;;;;16.90;95600.00;;;;8309706;28;20228;-66
2022/05/23 05:30:29;;;;;;;7.38;4.20;;;;;17.20;95609.00;;;;8321043;28;20227;-65
2022/05/23 05:34:37;;;;;;;4.82;3.08;;;;;17.50;95613.00;;;;8313307;28;20883;-66
2022/05/23 05:38:44;;;;;;;7.85;3.78;;;;;17.70;95606.00;;;;8313749;28;20231;-66
2022/05/23 05:42:59;;;;;;;5.00;3.35;;;;;18.00;95619.00;;;;8306065;28;20233;-65
2022/05/23 05:47:08;;;;;;;9.48;3.53;;;;;18.50;95614.00;;;;8313102;28;20225;-65
2022/05/23 05:51:29;;;;;;;5.43;3.10;;;;;19.00;95602.00;;;;8314839;28;20248;-65
2022/05/23 05:55:33;;;;;;;6.35;3.85;;;;;19.20;95605.00;;;;8312529;28;20234;-66
2022/05/23 05:59:38;;;;;;;7.22;3.47;;;;;19.70;95613.00;;;;8313046;28;20317;-66
2022/05/23 06:03:41;;;;;;;3.97;2.97;;;;;20.10;95618.00;;;;8327504;28;20236;-66
2022/05/23 06:12:06;;;;;;;7.90;3.70;;;;;21.00;95609.00;;;;8339641;28;20308;-66
2022/05/23 06:16:11;;;;;;;6.35;3.70;;;;;21.20;95604.00;;;;8344073;28;20262;-65
2022/05/23 06:20:15;;;;;;;6.32;3.08;;;;;21.20;95605.00;;;;8333844;28;20240;-66
2022/05/23 06:24:19;;;;;;;7.25;2.83;;;;;21.00;95626.00;;;;8340173;28;20236;-65
2022/05/23 06:28:22;;;;;;;6.07;3.20;;;;;20.90;95631.00;;;;8342899;28;20256;-65
2022/05/23 06:32:27;;;;;;;6.85;3.13;;;;;20.80;95633.00;;;;8345233;28;20703;-65
2022/05/23 06:36:30;;;;;;;4.00;2.85;;;;;20.70;95643.00;;;;8343015;28;20248;-65
2022/05/23 06:40:34;;;;;;;7.55;3.05;;;;;20.50;95647.00;;;;8340270;28;20262;-65
2022/05/23 06:44:37;;;;;;;4.10;2.72;;;;;20.50;95653.00;;;;8343532;28;20297;-65
2022/05/23 06:48:42;;;;;;;4.47;2.90;;;;;20.60;95672.00;;;;8340860;28;20228;-64
2022/05/23 06:52:45;;;;;;;11.00;3.20;;;;;20.60;95696.00;;;;8339743;28;20327;-64
2022/05/23 06:56:49;;;;;;;6.43;2.90;;;;;20.50;95731.00;;;;8338950;28;20224;-65
2022/05/23 07:00:53;;;;;;;5.13;3.10;;;;;20.40;95769.00;;;;8348177;28;20255;-66
2022/05/23 07:13:45;;;;;;;4.00;2.80;;;;;19.70;95833.00;;;;8277936;28;20221;-66
2022/05/23 07:17:48;;;;;;;6.70;3.60;;;;;19.40;95819.00;;;;8315821;28;20733;-65
2022/05/23 07:21:54;;;;;;;3.83;3.13;;;;;18.80;95799.00;;;;8315368;28;20221;-65
2022/05/23 07:25:58;;;;;;;6.50;3.63;;;;;18.40;95785.00;;;;8309517;28;20312;-67
2022/05/23 07:30:02;;;;;;;6.25;3.67;;;;;18.10;95768.00;;;;8309302;28;20252;-68
2022/05/23 07:34:05;;;;;;;7.07;3.50;;;;;18.10;95761.00;;;;8318582;28;20736;-68
2022/05/23 07:38:10;;;;;;;3.75;3.33;;;;;18.20;95766.00;;;;8314169;28;20234;-65
2022/05/23 07:42:14;;;;;;;5.85;4.20;;;;;18.20;95764.00;;;;8299594;28;20268;-74
2022/05/23 07:46:17;;;;;;;7.38;4.53;;;;;17.80;95764.00;;;;8306008;28;20229;-64
2022/05/23 07:50:21;;;;;;;7.10;4.95;;;;;17.40;95754.00;;;;8311587;28;20221;-63
2022/05/23 08:03:16;;;;;;;13.95;5.75;;;;;16.70;95627.00;;;;8310033;28;20233;-60
2022/05/23 08:07:21;;;;;;;12.57;6.60;;;;;16.40;95606.00;;;;8311972;28;20748;-59
2022/05/23 08:11:25;;;;;;;12.73;5.75;;;;;16.40;95600.00;;;;8312969;28;20647;-59
2022/05/23 08:15:29;;;;;;;12.68;6.35;;;;;16.50;95578.00;;;;8307928;28;20266;-59
2022/05/23 08:19:33;;;;;;;7.32;5.85;;;;;16.50;95572.00;;;;8296851;28;20323;-60
2022/05/23 08:23:36;;;;;;;9.25;5.72;;;;;16.50;95579.00;;;;8307856;28;20237;-62
2022/05/23 08:27:41;;;;;;;11.48;5.03;;;;;16.60;95565.00;;;;8303011;28;20229;-63
2022/05/23 08:31:45;;;;;;;13.38;5.72;;;;;16.80;95567.00;;;;8305310;28;20248;-66
2022/05/23 08:35:49;;;;;;;11.98;5.85;;;;;17.20;95546.00;;;;8304809;28;20236;-67
2022/05/23 08:39:52;;;;;;;11.57;6.28;;;;;17.40;95539.00;;;;8313847;28;20605;-72
2022/05/23 08:44:05;;;;;;;9.98;5.43;;;;;17.80;95535.00;;;;8312123;28;20246;-78
2022/05/23 08:48:14;;;;;;;9.65;5.65;;;;;18.30;95512.00;;;;8299308;28;20218;-74
2022/05/23 08:52:26;;;;;;;6.68;5.15;;;;;19.00;95499.00;;;;8294916;28;20231;-71
2022/05/23 08:56:33;;;;;;;7.40;5.70;;;;;19.40;95489.00;;;;8296924;28;20229;-70
2022/05/23 09:00:41;;;;;;;17.65;5.88;;;;;19.30;95475.00;;;;8305344;28;20225;-70
2022/05/23 09:04:50;;;;;;;7.13;4.82;;;;;19.30;95477.00;;;;8290008;28;20316;-69
2022/05/23 09:08:56;;;;;;;10.18;5.13;;;;;19.80;95464.00;;;;8298688;28;20240;-69
2022/05/23 09:12:59;;;;;;;10.95;4.97;;;;;20.90;95461.00;;;;8290652;28;20683;-69
2022/05/23 09:17:07;;;;;;;7.03;4.47;;;;;21.80;95462.00;;;;8296299;28;20241;-69
2022/05/23 09:21:10;;;;;;;10.15;4.40;;;;;22.40;95450.00;;;;8311842;28;20249;-69
2022/05/23 09:25:16;;;;;;;6.25;4.15;;;;;23.30;95438.00;;;;8306430;28;20244;-69
2022/05/23 09:29:19;;;;;;;4.20;3.78;;;;;24.30;95437.00;;;;8303583;28;20220;-68
2022/05/23 09:33:24;;;;;;;7.63;4.10;;;;;24.30;95440.00;;;;8308876;28;20267;-68
2022/05/23 09:37:35;;;;;;;5.95;3.67;;;;;24.50;95444.00;;;;8306817;28;20236;-67
2022/05/23 09:50:42;;;;;;;4.78;3.30;;;;;26.80;95415.00;;;;8300831;28;20239;-68
2022/05/23 09:54:52;;;;;;;7.43;3.22;;;;;26.60;95421.00;;;;8303903;28;20240;-68
2022/05/23 09:58:56;;;;;;;5.18;3.50;;;;;26.00;95419.00;;;;8305330;28;20236;-68
2022/05/23 10:03:03;;;;;;;5.63;3.38;;;;;25.40;95422.00;;;;8304324;28;20713;-68
2022/05/23 10:07:21;;;;;;;4.10;3.00;;;;;25.10;95421.00;;;;8302957;28;20314;-68
2022/05/23 10:11:29;;;;;;;9.82;3.40;;;;;25.40;95411.00;;;;8306895;28;20221;-67
2022/05/23 10:15:33;;;;;;;4.57;2.60;;;;;26.10;95417.00;;;;8300928;28;20234;-69
2022/05/23 10:19:38;;;;;;;9.25;2.90;;;;;26.40;95408.00;;;;8299184;28;20229;-68
2022/05/23 10:23:59;;;;;;;4.50;3.00;;;;;26.20;95411.00;;;;8308393;28;20224;-69
2022/05/23 10:28:09;;;;;;;4.68;2.95;;;;;26.00;95412.00;;;;8301950;28;20264;-69
2022/05/23 10:32:16;;;;;;;5.93;3.17;;;;;26.00;95421.00;;;;8296194;28;20230;-68
2022/05/23 10:36:23;;;;;;;6.55;3.30;;;;;26.20;95412.00;;;;8305629;28;20237;-68
2022/05/23 10:45:12;;;;;;;5.18;2.75;;;;;27.20;95418.00;;;;8288892;28;20697;-68
2022/05/23 10:49:22;;;;;;;4.03;2.95;;;;;28.40;95425.00;;;;8291550;28;20217;-68
2022/05/23 10:53:48;;;;;;;4.65;2.92;;;;;28.50;95419.00;;;;8288762;28;20313;-68
2022/05/23 10:58:06;;;;;;;2.63;2.20;;;;;28.90;95424.00;;;;8295278;28;20308;-68
2022/05/23 11:02:27;;;;;;;4.20;3.10;;;;;29.10;95421.00;;;;8237058;28;1227699;-68
2022/05/23 11:06:45;;;;;;;4.28;2.25;;;;;28.60;95415.00;;;;8313798;28;20241;-68
2022/05/23 11:10:53;;;;;;;7.90;2.67;;;;;28.10;95425.00;;;;8303329;28;20236;-66
2022/05/23 11:15:12;;;;;;;3.92;2.22;;;;;27.90;95420.00;;;;8307117;28;20323;-68
2022/05/23 11:19:25;;;;;;;4.07;2.33;;;;;27.60;95410.00;;;;8308224;28;20308;-66
2022/05/23 11:23:33;;;;;;;7.72;2.90;;;;;27.30;95405.00;;;;8300437;28;20305;-68
2022/05/23 11:36:44;;;;;;;4.95;2.50;;;;;27.00;95402.00;;;;8307609;28;20221;-67
2022/05/23 11:41:00;;;;;;;8.27;4.43;;;;;26.90;95399.00;;;;8300057;28;20230;-67
2022/05/23 11:50:07;;;;;;;5.22;2.60;;;;;26.40;95375.00;;;;8258827;28;20229;-67
2022/05/23 11:54:40;;;;;;;3.58;2.75;;;;;26.30;95380.00;;;;8300163;28;20244;-67
2022/05/23 11:58:48;;;;;;;4.00;3.10;;;;;26.10;95376.00;;;;8304999;28;20228;-66
2022/05/23 12:03:10;;;;;;;4.68;2.50;;;;;26.60;95395.00;;;;8314114;28;20320;-67
2022/05/23 12:07:47;;;;;;;6.60;2.65;;;;;27.10;95389.00;;;;8314771;28;20229;-68
2022/05/23 12:11:53;;;;;;;3.35;2.55;;;;;27.60;95389.00;;;;8305670;28;20685;-68
2022/05/23 12:15:58;;;;;;;2.75;2.40;;;;;28.20;95380.00;;;;8305699;28;20218;-67
2022/05/23 12:20:06;;;;;;;6.50;2.60;;;;;29.40;95376.00;;;;8309310;28;20222;-68
2022/05/23 12:24:26;;;;;;;2.72;2.20;;;;;29.50;95368.00;;;;8299936;28;20999;-66
2022/05/23 12:28:52;;;;;;;4.95;2.20;;;;;29.60;95368.00;;;;8311950;28;20221;-66
2022/05/23 12:33:05;;;;;;;2.83;2.30;;;;;29.40;95366.00;;;;8313479;28;20222;-66
2022/05/23 12:37:15;;;;;;;3.40;2.13;;;;;29.00;95366.00;;;;8307390;28;20238;-68
2022/05/23 12:41:53;;;;;;;3.78;2.40;;;;;28.50;95364.00;;;;8299698;28;20225;-68
2022/05/23 12:46:14;;;;;;;3.80;2.72;;;;;28.70;95366.00;;;;8301608;28;20244;-68
2022/05/23 12:50:25;;;;;;;2.30;2.10;;;;;28.90;95359.00;;;;8305642;28;20348;-68
2022/05/23 12:54:40;;;;;;;3.67;2.70;;;;;29.40;95344.00;;;;8307924;28;20229;-68
2022/05/23 12:59:07;;;;;;;7.88;2.65;;;;;30.10;95342.00;;;;8314071;28;20626;-68
2022/05/23 13:03:20;;;;;;;2.53;2.28;;;;;30.20;95338.00;;;;8308690;28;20316;-68
2022/05/23 13:07:31;;;;;;;4.80;2.63;;;;;30.30;95327.00;;;;8313190;28;20240;-67
2022/05/23 13:11:38;;;;;;;4.22;2.63;;;;;30.70;95338.00;;;;8295889;28;20235;-68
2022/05/23 13:15:41;;;;;;;4.03;2.50;;;;;31.30;95335.00;;;;8300371;28;20256;-67
2022/05/23 13:24:11;;;;;;;4.75;2.38;;;;;32.10;95343.00;;;;8314442;28;20237;-67
2022/05/23 13:28:17;;;;;;;2.55;2.28;;;;;32.20;95352.00;;;;8311278;28;20702;-67
2022/05/23 13:32:21;;;;;;;4.63;2.40;;;;;32.00;95357.00;;;;8297457;28;20230;-67
2022/05/23 13:36:27;;;;;;;4.15;2.42;;;;;32.50;95354.00;;;;8310338;28;20237;-68
2022/05/23 13:40:31;;;;;;;4.95;2.38;;;;;32.40;95358.00;;;;8305652;28;20239;-68
2022/05/23 13:44:35;;;;;;;2.78;2.53;;;;;32.30;95355.00;;;;8305861;28;20231;-68
2022/05/23 13:48:44;;;;;;;3.10;2.20;;;;;32.20;95358.00;;;;8299415;28;20773;-68
2022/05/23 13:52:54;;;;;;;3.55;2.17;;;;;31.80;95359.00;;;;8291483;28;20333;-68
2022/05/23 13:57:03;;;;;;;2.90;2.35;;;;;31.50;95357.00;;;;8304574;28;20329;-68
2022/05/23 14:01:09;;;;;;;5.60;2.45;;;;;31.10;95356.00;;;;8302573;28;20233;-68
2022/05/23 14:05:13;;;;;;;5.10;2.70;;;;;30.40;95357.00;;;;8330968;28;20249;-69
2022/05/23 14:09:19;;;;;;;3.35;2.20;;;;;29.60;95361.00;;;;8341700;28;20227;-68
2022/05/23 14:13:22;;;;;;;3.35;2.50;;;;;29.20;95378.00;;;;8332324;28;20623;-68
2022/05/23 14:17:31;;;;;;;6.47;2.58;;;;;28.40;95372.00;;;;8339109;28;20236;-67
2022/05/23 14:21:37;;;;;;;6.30;2.72;;;;;27.60;95373.00;;;;8339873;28;20229;-67
2022/05/23 14:25:43;;;;;;;5.00;3.03;;;;;25.80;95308.00;;;;8342209;28;20870;-73
2022/05/23 14:29:48;;;;;;;3.20;2.90;;;;;23.80;95303.00;;;;8335453;28;20749;-69
2022/05/23 14:33:59;;;;;;;7.22;2.95;;;;;22.70;95347.00;;;;8337483;28;20227;-70
2022/05/23 14:38:03;;;;;;;7.65;3.10;;;;;22.00;95343.00;;;;8335856;28;20225;-74
2022/05/23 14:42:23;;;;;;;6.63;3.65;;;;;21.70;95304.00;;;;8329914;28;20709;-73
2022/05/23 14:46:28;;;;;;;6.85;3.45;;;;;21.80;95287.00;;;;8339480;28;20312;-72
2022/05/23 14:50:42;;;;;;;6.10;3.55;;;;;22.10;95264.00;;;;8336986;28;20291;-71
2022/05/23 15:03:42;;;;;;;6.18;3.20;;;;;24.80;95226.00;;;;8326991;28;20769;-68
2022/05/23 15:07:45;;;;;;;3.40;3.10;;;;;26.30;95222.00;;;;8310729;28;20281;-69
2022/05/23 15:11:49;;;;;;;5.57;3.58;;;;;27.20;95215.00;;;;8318267;28;20252;-67
2022/05/23 15:15:54;;;;;;;3.85;2.78;;;;;27.60;95190.00;;;;8309360;28;20225;-68
2022/05/23 15:19:57;;;;;;;3.88;2.78;;;;;27.80;95170.00;;;;8316513;28;20324;-67
2022/05/23 15:24:01;;;;;;;4.50;2.72;;;;;27.80;95153.00;;;;8308035;28;20258;-65
2022/05/23 15:28:07;;;;;;;4.15;2.72;;;;;27.80;95146.00;;;;8311965;28;20312;-66
2022/05/23 15:32:19;;;;;;;6.25;2.65;;;;;27.90;95143.00;;;;8311925;28;20230;-67
2022/05/23 15:36:23;;;;;;;2.65;2.45;;;;;28.10;95143.00;;;;8314850;28;20233;-67
2022/05/23 15:40:28;;;;;;;3.85;2.97;;;;;28.10;95144.00;;;;8304953;28;20240;-67
2022/05/23 15:44:35;;;;;;;7.35;3.13;;;;;28.20;95155.00;;;;8311510;28;20229;-67
2022/05/23 15:48:40;;;;;;;3.55;2.22;;;;;28.10;95159.00;;;;8311606;28;20870;-67
2022/05/23 15:52:43;;;;;;;4.35;2.70;;;;;27.90;95157.00;;;;8315091;28;20235;-67
2022/05/23 15:56:46;;;;;;;6.40;2.60;;;;;27.90;95150.00;;;;8310725;28;20237;-66
2022/05/23 16:00:50;;;;;;;4.13;2.78;;;;;27.80;95154.00;;;;8308518;28;20818;-66
2022/05/23 16:04:55;;;;;;;5.18;2.85;;;;;27.80;95153.00;;;;8333999;28;20898;-66
2022/05/23 16:08:58;;;;;;;5.82;2.97;;;;;27.70;95149.00;;;;8344993;28;20689;-68
2022/05/23 16:13:07;;;;;;;3.67;2.60;;;;;27.70;95152.00;;;;8335675;28;20225;-68
2022/05/23 16:17:11;;;;;;;4.90;2.55;;;;;27.60;95148.00;;;;8338284;28;20250;-68
2022/05/23 16:21:16;;;;;;;6.07;2.75;;;;;27.60;95162.00;;;;8339659;28;20243;-67
2022/05/23 16:25:20;;;;;;;4.28;2.70;;;;;27.40;95159.00;;;;8340777;28;20225;-69
2022/05/23 16:29:24;;;;;;;5.65;2.58;;;;;27.30;95152.00;;;;8337957;28;20232;-66
2022/05/23 16:37:49;;;;;;;6.65;2.85;;;;;27.30;95137.00;;;;8336275;28;20297;-69
2022/05/23 16:41:53;;;;;;;4.85;2.72;;;;;27.30;95139.00;;;;8338997;28;20696;-69
2022/05/23 16:45:56;;;;;;;3.33;2.10;;;;;27.60;95135.00;;;;8342792;28;20812;-69
2022/05/23 16:49:59;;;;;;;2.55;2.30;;;;;27.80;95145.00;;;;8332102;28;20232;-67
2022/05/23 16:54:06;;;;;;;3.78;2.53;;;;;27.90;95130.00;;;;8342363;28;20228;-70
2022/05/23 16:58:10;;;;;;;2.88;2.35;;;;;28.00;95119.00;;;;8339064;28;20312;-68
2022/05/23 17:02:21;;;;;;;4.93;2.35;;;;;28.40;95122.00;;;;8338429;28;20393;-68
2022/05/23 17:06:25;;;;;;;3.03;2.17;;;;;28.80;95135.00;;;;8334172;28;20733;-68
2022/05/23 17:10:30;;;;;;;7.75;2.50;;;;;28.90;95148.00;;;;8332512;28;20264;-67
2022/05/23 17:14:33;;;;;;;8.63;2.42;;;;;29.10;95162.00;;;;8331230;28;20326;-68
2022/05/23 17:18:37;;;;;;;6.70;2.60;;;;;29.10;95163.00;;;;8328684;28;20220;-67
2022/05/23 17:22:40;;;;;;;6.43;2.65;;;;;29.00;95173.00;;;;8332248;28;20567;-68
2022/05/23 17:26:45;;;;;;;3.38;2.50;;;;;28.80;95187.00;;;;8330636;28;20321;-67
2022/05/23 17:30:48;;;;;;;4.63;2.38;;;;;28.30;95208.00;;;;8329473;28;20563;-68
2022/05/23 17:34:51;;;;;;;4.30;2.35;;;;;27.70;95222.00;;;;8331428;28;20590;-68
2022/05/23 17:38:56;;;;;;;4.30;2.58;;;;;27.10;95232.00;;;;8326546;28;20221;-67
2022/05/23 17:43:00;;;;;;;5.05;2.90;;;;;26.70;95239.00;;;;8333920;28;20578;-67
2022/05/23 17:47:04;;;;;;;5.82;2.47;;;;;26.30;95249.00;;;;8328534;28;20282;-67
2022/05/23 17:51:08;;;;;;;7.18;2.90;;;;;26.00;95264.00;;;;8332940;28;20234;-68
2022/05/23 17:55:14;;;;;;;4.03;2.83;;;;;25.60;95267.00;;;;8312313;28;20239;-69
2022/05/23 17:59:20;;;;;;;8.23;3.05;;;;;24.60;95269.00;;;;8327983;28;20238;-77
2022/05/23 18:03:23;;;;;;;6.57;3.42;;;;;23.70;95272.00;;;;8341365;28;20232;-74
2022/05/23 18:07:27;;;;;;;4.10;3.40;;;;;23.30;95288.00;;;;8341451;28;20248;-74
2022/05/23 18:11:30;;;;;;;4.70;3.45;;;;;23.00;95331.00;;;;8336023;28;20656;-72
2022/05/23 18:19:55;;;;;;;10.38;3.47;;;;;21.30;95376.00;;;;8330743;28;20896;-67
2022/05/23 18:23:58;;;;;;;5.63;3.10;;;;;20.10;95394.00;;;;8343871;28;20321;-66
2022/05/23 18:28:02;;;;;;;6.80;2.45;;;;;19.30;95382.00;;;;8337175;28;20228;-68
2022/05/23 18:32:07;;;;;;;5.78;3.03;;;;;18.70;95377.00;;;;8332182;28;20555;-67
2022/05/23 18:36:11;;;;;;;4.30;2.40;;;;;18.40;95391.00;;;;8341624;28;20680;-67
2022/05/23 18:40:15;;;;;;;2.17;2.00;;;;;18.20;95391.00;;;;8320468;28;20231;-68
2022/05/23 18:44:20;;;;;;;5.28;2.40;;;;;18.00;95366.00;;;;8335241;28;20228;-67
2022/05/23 18:52:46;;;;;;;6.38;2.40;;;;;17.70;95349.00;;;;8327854;28;20220;-66
2022/05/23 18:56:49;;;;;;;4.10;2.50;;;;;17.70;95328.00;;;;8334230;28;20224;-65
2022/05/23 19:00:52;;;;;;;6.13;2.45;;;;;17.80;95300.00;;;;8325994;28;20224;-67
2022/05/23 19:04:57;;;;;;;5.95;2.72;;;;;17.80;95262.00;;;;8328415;28;20668;-66
2022/05/23 19:09:01;;;;;;;4.38;2.45;;;;;17.60;95235.00;;;;8332223;28;20259;-66
2022/05/23 19:13:07;;;;;;;9.48;3.00;;;;;17.50;95243.00;;;;8333547;28;20974;-67
2022/05/23 19:17:30;;;;;;;12.13;2.70;;;;;17.50;95252.00;;;;8332086;28;20236;-68
2022/05/23 19:21:41;;;;;;;10.15;3.47;;;;;17.50;95257.00;;;;8342270;28;20243;-67
2022/05/23 19:25:44;;;;;;;6.80;2.65;;;;;17.40;95254.00;;;;8330474;28;20221;-67
2022/05/23 19:29:47;;;;;;;8.18;2.97;;;;;17.40;95259.00;;;;8320504;28;20228;-66
2022/05/23 19:33:51;;;;;;;10.50;2.97;;;;;17.40;95242.00;;;;8328148;28;20232;-66
2022/05/23 19:37:55;;;;;;;4.43;2.75;;;;;17.30;95249.00;;;;8339809;28;20227;-66
2022/05/23 19:41:58;;;;;;;9.15;3.10;;;;;17.20;95259.00;;;;8336045;28;20225;-66
2022/05/23 19:46:02;;;;;;;4.90;2.70;;;;;17.30;95251.00;;;;8339683;28;20890;-66
2022/05/23 19:50:07;;;;;;;8.65;3.08;;;;;17.30;95231.00;;;;8338500;28;20228;-66
2022/05/23 19:54:12;;;;;;;11.05;3.20;;;;;17.30;95228.00;;;;8343938;28;20304;-67
2022/05/23 19:58:16;;;;;;;4.70;2.70;;;;;17.20;95231.00;;;;8342523;28;20235;-67
2022/05/23 20:07:02;;;;;;;5.15;2.70;;;;;17.10;95252.00;;;;8338792;28;20235;-66
2022/05/23 20:11:09;;;;;;;6.55;3.10;;;;;17.00;95263.00;;;;8337430;28;20227;-67
2022/05/23 20:15:26;;;;;;;4.80;2.63;;;;;17.00;95280.00;;;;8339055;28;20221;-68
2022/05/23 20:19:30;;;;;;;3.17;2.30;;;;;17.00;95295.00;;;;8337969;28;20225;-69
2022/05/23 20:23:33;;;;;;;7.78;2.83;;;;;16.90;95288.00;;;;8342916;28;20304;-66
2022/05/23 20:27:58;;;;;;;3.08;2.78;;;;;16.80;95285.00;;;;8340640;28;20232;-67
2022/05/23 20:32:01;;;;;;;4.90;2.20;;;;;16.80;95286.00;;;;8341843;28;20232;-68
2022/05/23 20:36:22;;;;;;;10.52;2.47;;;;;16.70;95291.00;;;;8339969;28;20267;-67
2022/05/23 20:40:25;;;;;;;4.68;2.58;;;;;16.70;95308.00;;;;8336715;28;20224;-68
2022/05/23 20:44:30;;;;;;;2.92;2.40;;;;;16.60;95308.00;;;;8330326;28;20225;-69
2022/05/23 20:48:33;;;;;;;8.32;2.83;;;;;16.60;95315.00;;;;8348661;28;20255;-67
2022/05/23 20:52:36;;;;;;;6.57;2.22;;;;;16.60;95310.00;;;;8345975;28;20232;-68
2022/05/23 20:56:39;;;;;;;3.20;2.47;;;;;16.60;95302.00;;;;8321961;28;20237;-68
2022/05/23 21:00:47;;;;;;;5.50;2.47;;;;;16.60;95296.00;;;;8339056;28;20236;-70
2022/05/23 21:04:50;;;;;;;7.47;2.75;;;;;16.60;95284.00;;;;8331735;28;20312;-70
2022/05/23 21:08:54;;;;;;;6.53;2.95;;;;;16.60;95301.00;;;;8342574;28;20239;-71
2022/05/23 21:12:57;;;;;;;8.55;2.92;;;;;16.60;95310.00;;;;8343382;28;20862;-71
2022/05/23 21:17:04;;;;;;;7.38;2.83;;;;;16.60;95311.00;;;;8343188;28;20684;-71
2022/05/23 21:21:07;;;;;;;5.95;2.75;;;;;16.50;95309.00;;;;8344276;28;20225;-71
2022/05/23 21:25:13;;;;;;;7.40;2.70;;;;;16.40;95310.00;;;;8344206;28;20217;-71
2022/05/23 21:29:16;;;;;;;8.90;2.50;;;;;16.40;95322.00;;;;8338091;28;20828;-71
2022/05/23 21:33:21;;;;;;;12.38;3.20;;;;;16.30;95310.00;;;;8340240;28;20216;-71
2022/05/23 21:37:24;;;;;;;5.85;2.70;;;;;16.30;95322.00;;;;8332974;28;20307;-70
2022/05/23 21:50:11;;;;;;;8.50;2.85;;;;;16.40;95322.00;;;;8338925;28;20351;-71
2022/05/23 21:54:16;;;;;;;4.25;2.65;;;;;16.40;95315.00;;;;8330799;28;20863;-71
2022/05/23 21:58:19;;;;;;;6.63;3.08;;;;;16.30;95341.00;;;;8335335;28;20217;-73
2022/05/23 22:02:24;;;;;;;7.65;3.53;;;;;16.30;95337.00;;;;8333780;28;20237;-73
2022/05/23 22:06:28;;;;;;;9.30;3.10;;;;;16.30;95347.00;;;;8308092;28;20497;-72
2022/05/23 22:10:32;;;;;;;7.18;2.50;;;;;16.30;95349.00;;;;8301536;28;20257;-72
2022/05/23 22:14:35;;;;;;;6.53;3.30;;;;;16.40;95342.00;;;;8305206;28;20263;-72
2022/05/23 22:18:38;;;;;;;7.97;3.40;;;;;16.40;95348.00;;;;8305571;28;20240;-73
2022/05/23 22:22:42;;;;;;;7.53;2.83;;;;;16.50;95353.00;;;;8302577;28;20720;-73
2022/05/23 22:26:47;;;;;;;6.47;2.95;;;;;16.50;95342.00;;;;8300157;28;20236;-73
2022/05/23 22:30:50;;;;;;;5.00;2.95;;;;;16.50;95338.00;;;;8302805;28;20237;-72